Data for 01/09/2007

Time Sea-Level Adjusted Pressure Absolute Pressure Temperature Relative Humidity Dew Point   
(mb) (inHg) (mb) (inHg) (C) (F) (%) (C) (F)
00:05 1027 30.33 856 25.28 0.5 32.8 61 -6.1 21
00:10 1027 30.33 856 25.28 0.5 32.8 62 -6.1 21.1
00:15 1027 30.33 856 25.28 0.4 32.8 62 -6 21.1
00:20 1027 30.33 856 25.28 0.3 32.5 63 -6 21.2
00:25 1027 30.33 856 25.28 0.2 32.4 62 -6.3 20.7
00:30 1026 30.3 856 25.28 0.2 32.4 64 -5.9 21.4
00:35 1026 30.3 856 25.28 0.3 32.5 63 -5.9 21.3
00:40 1026 30.3 855 25.25 0.5 32.8 62 -6 21.1
00:45 1026 30.3 855 25.25 0.5 32.9 62 -5.9 21.4
00:50 1026 30.3 855 25.25 0.6 33 61 -6 21.2
00:55 1026 30.3 855 25.25 0.8 33.4 60 -6.1 21
01:00 1026 30.3 855 25.25 0.8 33.4 60 -6.1 21.1
01:05 1026 30.3 855 25.25 0.8 33.5 60 -6.2 20.9
01:10 1026 30.3 855 25.25 0.9 33.6 62 -5.7 21.8
01:15 1026 30.3 855 25.25 0.7 33.3 63 -5.5 22.1
01:20 1026 30.3 855 25.25 0.6 33.1 64 -5.4 22.3
01:25 1026 30.3 855 25.25 0.4 32.6 66 -5.4 22.4
01:30 1026 30.3 855 25.25 0.6 33 61 -6.1 21
01:35 1025 30.27 855 25.25 1.1 33.9 60 -5.9 21.4
01:40 1025 30.27 855 25.25 1 33.8 61 -5.7 21.7
01:45 1025 30.27 855 25.25 0.9 33.7 61 -5.8 21.5
01:50 1025 30.27 855 25.25 0.9 33.7 61 -5.8 21.6
01:55 1025 30.27 855 25.25 0.8 33.5 61 -5.9 21.3
02:00 1025 30.27 855 25.25 0.8 33.4 62 -5.8 21.6
02:05 1025 30.27 855 25.25 0.9 33.6 60 -5.9 21.3
02:10 1025 30.27 855 25.25 1 33.9 59 -6 21.1
02:15 1025 30.27 855 25.25 1.1 34 59 -6.1 21
02:20 1025 30.27 855 25.25 1.1 34.1 59 -6.1 21.1
02:25 1025 30.27 855 25.25 1.3 34.3 58 -6.2 20.9
02:30 1025 30.27 855 25.25 1.4 34.5 59 -5.8 21.5
02:35 1025 30.27 855 25.25 1.3 34.3 60 -5.7 21.8
02:40 1025 30.27 855 25.25 1.3 34.3 60 -5.7 21.7
02:45 1025 30.27 855 25.25 1.7 35.1 57 -6 21.2
02:50 1025 30.27 855 25.25 2.1 35.7 57 -5.6 22
02:55 1025 30.27 855 25.25 2 35.6 59 -5.1 22.9
03:00 1025 30.27 855 25.25 1.8 35.3 60 -5 23
03:05 1025 30.27 855 25.25 1.7 35 63 -4.6 23.7
03:10 1025 30.27 854 25.22 1.6 34.8 61 -5.1 22.7
03:15 1025 30.27 854 25.22 1.8 35.3 62 -4.7 23.6
03:20 1025 30.27 854 25.22 1.9 35.5 61 -4.9 23.2
03:25 1025 30.27 854 25.22 2.2 35.9 56 -5.7 21.8
03:30 1025 30.27 854 25.22 2.1 35.8 59 -5 22.9
03:35 1025 30.27 854 25.22 1.9 35.5 61 -4.8 23.4
03:40 1025 30.27 854 25.22 1.8 35.2 61 -4.9 23.2
03:45 1025 30.27 854 25.22 2.1 35.8 56 -5.9 21.4
03:50 1025 30.27 854 25.22 2.6 36.6 59 -4.6 23.8
03:55 1025 30.27 854 25.22 1.9 35.5 62 -4.5 23.9
04:00 1025 30.27 854 25.22 2 35.6 59 -5.1 22.9
04:05 1025 30.27 854 25.22 2 35.6 61 -4.9 23.3
04:10 1024 30.24 854 25.22 2 35.5 61 -4.8 23.3
04:15 1024 30.24 853 25.19 2 35.7 60 -4.9 23.1
04:20 1024 30.24 853 25.19 2 35.6 59 -5.1 22.8
04:25 1024 30.24 853 25.19 2 35.7 61 -4.8 23.4
04:30 1024 30.24 853 25.19 2.2 35.9 60 -4.7 23.5
04:35 1024 30.24 853 25.19 2.7 36.9 57 -5.1 22.8
04:40 1024 30.24 853 25.19 3 37.4 57 -4.8 23.3
04:45 1024 30.24 853 25.19 3.3 37.9 56 -4.7 23.6
04:50 1024 30.24 853 25.19 3 37.3 58 -4.6 23.7
04:55 1024 30.24 853 25.19 2.4 36.3 59 -4.9 23.1
05:00 1024 30.24 853 25.19 2.3 36.1 60 -4.6 23.7
05:05 1023 30.21 853 25.19 2.4 36.3 61 -4.3 24.2
05:10 1023 30.21 852 25.16 2.2 36 64 -3.9 25
05:15 1023 30.21 852 25.16 2 35.6 62 -4.6 23.8
05:20 1023 30.21 852 25.16 2.2 36 62 -4.2 24.4
05:25 1023 30.21 852 25.16 2.3 36.2 62 -4.2 24.5
05:30 1023 30.21 852 25.16 2.3 36.2 60 -4.5 23.8
05:35 1023 30.21 852 25.16 2.4 36.3 60 -4.5 23.9
05:40 1023 30.21 852 25.16 2.8 37 60 -4.2 24.4
05:45 1023 30.21 852 25.16 2.9 37.2 59 -4.3 24.3
05:50 1023 30.21 852 25.16 3 37.3 59 -4.3 24.3
05:55 1022 30.18 852 25.16 3.5 38.3 57 -4.2 24.5
06:00 1022 30.18 852 25.16 3.4 38.1 57 -4.3 24.2
06:05 1022 30.18 852 25.16 3.1 37.6 58 -4.3 24.3
06:10 1022 30.18 852 25.16 3.1 37.5 59 -4.1 24.6
06:15 1022 30.18 851 25.13 2.9 37.3 59 -4.2 24.4
06:20 1022 30.18 851 25.13 2.2 36 66 -3.5 25.7
06:25 1022 30.18 851 25.13 1.1 33.9 66 -4.5 23.9
06:30 1022 30.18 851 25.13 1.7 35 64 -4.3 24.2
06:35 1022 30.18 851 25.13 2 35.5 63 -4.3 24.2
06:40 1022 30.18 851 25.13 1.9 35.4 64 -4.2 24.5
06:45 1022 30.18 851 25.13 2.4 36.3 60 -4.5 23.8
06:50 1022 30.18 851 25.13 3.4 38.1 57 -4.4 24.1
06:55 1022 30.18 851 25.13 3.8 38.9 56 -4.2 24.4
07:00 1022 30.18 851 25.13 3.9 39 56 -4.2 24.5
07:05 1022 30.18 851 25.13 3.6 38.4 57 -4.1 24.6
07:10 1022 30.18 851 25.13 3.5 38.3 58 -3.9 25
07:15 1022 30.18 851 25.13 3.6 38.4 57 -4.2 24.4
07:20 1021 30.15 851 25.13 3.6 38.5 58 -4 24.8
07:25 1021 30.15 851 25.13 3.4 38.2 58 -4.1 24.6
07:30 1021 30.15 850 25.1 3.2 37.7 59 -4.1 24.7
07:35 1021 30.15 850 25.1 3.3 37.9 57 -4.5 23.9
07:40 1021 30.15 850 25.1 3.4 38.1 57 -4.3 24.2
07:45 1021 30.15 850 25.1 3.4 38.1 57 -4.4 24.1
07:50 1021 30.15 850 25.1 3 37.4 59 -4.2 24.4
07:55 1021 30.15 850 25.1 1.8 35.2 64 -4.3 24.3
08:00 1021 30.15 850 25.1 1.4 34.6 65 -4.4 24
08:05 1021 30.15 850 25.1 1.4 34.6 64 -4.6 23.8
08:10 1021 30.15 850 25.1 1.2 34.1 66 -4.6 23.7
08:15 1021 30.15 850 25.1 1 33.7 66 -4.7 23.5
08:20 1021 30.15 850 25.1 1.2 34.1 65 -4.7 23.5
08:25 1021 30.15 850 25.1 1.1 34 65 -4.8 23.4
08:30 1021 30.15 850 25.1 0.9 33.6 66 -4.8 23.4
08:35 1021 30.15 850 25.1 1 33.9 65 -4.8 23.3
08:40 1021 30.15 850 25.1 1.3 34.3 64 -4.8 23.4
08:45 1021 30.15 850 25.1 1.4 34.5 64 -4.8 23.4
08:50 1021 30.15 850 25.1 1.7 35.1 61 -5 23
08:55 1021 30.15 850 25.1 2.1 35.9 59 -5.1 22.8
09:00 1021 30.15 850 25.1 2.8 37 57 -4.8 23.3
09:05 1021 30.15 850 25.1 2.7 36.9 57 -5 23.1
09:10 1021 30.15 850 25.1 3.4 38.2 54 -5 23.1
09:15 1021 30.15 850 25.1 3.8 38.8 53 -4.9 23.1
09:20 1021 30.15 850 25.1 4.6 40.3 49 -5.1 22.8
09:25 1021 30.15 850 25.1 5.2 41.3 48 -4.9 23.2
09:30 1021 30.15 850 25.1 5.1 41.2 49 -4.8 23.3
09:35 1021 30.15 850 25.1 5.4 41.7 47 -4.9 23.2
09:40 1021 30.15 850 25.1 5.3 41.5 47 -5.1 22.8
09:45 1021 30.15 850 25.1 5.7 42.3 46 -5 22.9
09:50 1021 30.15 850 25.1 5.4 41.7 48 -4.7 23.5
09:55 1021 30.15 850 25.1 4.9 40.9 49 -5 23
10:00 1021 30.15 850 25.1 5.1 41.1 50 -4.6 23.7
10:05 1021 30.15 850 25.1 5.6 42 47 -4.9 23.1
10:10 1021 30.15 850 25.1 6.3 43.3 45 -4.7 23.5
10:15 1021 30.15 850 25.1 6.7 44.1 43 -4.8 23.3
10:20 1021 30.15 850 25.1 7 44.5 43 -4.8 23.4
10:25 1021 30.15 850 25.1 7.5 45.5 41 -4.8 23.3
10:30 1021 30.15 850 25.1 8.1 46.6 40 -4.6 23.6
10:35 1021 30.15 850 25.1 6.2 43.2 49 -3.6 25.6
10:40 1021 30.15 850 25.1 4 39.2 53 -4.8 23.4
10:45 1021 30.15 850 25.1 3.5 38.4 53 -5.1 22.8
10:50 1020 30.12 850 25.1 3.6 38.6 52 -5.3 22.5
10:55 1020 30.12 850 25.1 4.1 39.3 52 -5 23
11:00 1020 30.12 850 25.1 4.4 39.9 50 -5.2 22.6
11:05 1020 30.12 849 25.07 4.8 40.6 49 -5 22.9
11:10 1020 30.12 849 25.07 5.2 41.3 48 -5 23
11:15 1020 30.12 849 25.07 5.1 41.2 48 -5.1 22.9
11:20 1020 30.12 849 25.07 5.2 41.4 47 -5.3 22.5
11:25 1020 30.12 849 25.07 5.4 41.8 48 -4.8 23.3
11:30 1020 30.12 849 25.07 5.1 41.1 48 -4.9 23.1
11:35 1020 30.12 849 25.07 5.3 41.5 47 -5.1 22.8
11:40 1020 30.12 849 25.07 5.1 41.2 47 -5.2 22.6
11:45 1020 30.12 849 25.07 5.2 41.3 49 -4.6 23.7
11:50 1020 30.12 849 25.07 5.5 41.9 48 -4.8 23.4
11:55 1020 30.12 849 25.07 5.8 42.4 48 -4.4 24
12:00 1019 30.09 849 25.07 6.1 42.9 47 -4.4 24.1
12:05 1019 30.09 849 25.07 6.2 43.1 46 -4.5 23.8
12:10 1019 30.09 849 25.07 6.3 43.4 46 -4.4 24
12:15 1019 30.09 848 25.04 6.9 44.4 43 -4.8 23.3
12:20 1019 30.09 848 25.04 7.8 46 41 -4.6 23.7
12:25 1019 30.09 848 25.04 7.5 45.4 44 -4.1 24.7
12:30 1019 30.09 848 25.04 7.1 44.7 42 -5 22.9
12:35 1019 30.09 848 25.04 7.3 45.1 41 -5.2 22.6
12:40 1019 30.09 848 25.04 8.1 46.5 39 -5.2 22.6
12:45 1019 30.09 848 25.04 8.4 47.1 41 -4 24.8
12:50 1019 30.09 848 25.04 8.6 47.4 38 -5 23
12:55 1018 30.06 848 25.04 8.2 46.8 39 -4.9 23.3
13:00 1018 30.06 848 25.04 9.3 48.8 38 -4.2 24.4
13:05 1018 30.06 847 25.01 9.9 49.8 35 -4.6 23.6
13:10 1018 30.06 847 25.01 10.3 50.5 35 -4.6 23.7
13:15 1018 30.06 847 25.01 10.5 50.9 34 -4.6 23.8
13:20 1018 30.06 847 25.01 10.7 51.2 34 -4.5 24
13:25 1018 30.06 847 25.01 10.4 50.7 35 -4.3 24.3
13:30 1018 30.06 847 25.01 10 50 35 -4.8 23.3
13:35 1017 30.03 847 25.01 10 50 34 -5.1 22.9
13:40 1017 30.03 847 25.01 10.7 51.2 35 -4.2 24.5
13:45 1017 30.03 846 24.98 9.7 49.4 37 -4.1 24.6
13:50 1017 30.03 846 24.98 8.8 47.8 39 -4.3 24.2
13:55 1017 30.03 846 24.98 8.4 47.1 40 -4.5 23.9
14:00 1017 30.03 846 24.98 9.2 48.5 37 -4.7 23.5
14:05 1017 30.03 846 24.98 9.2 48.6 37 -4.8 23.4
14:10 1017 30.03 846 24.98 9.4 48.9 37 -4.5 23.9
14:15 1017 30.03 846 24.98 9.4 48.8 35 -5.2 22.6
14:20 1017 30.03 846 24.98 8.9 48 36 -5.3 22.5
14:25 1017 30.03 846 24.98 9 48.3 36 -5.1 22.9
14:30 1017 30.03 846 24.98 10 50 32 -6 21.2
14:35 1017 30.03 846 24.98 10.2 50.3 31 -6.1 20.9
14:40 1016 30 846 24.98 10.1 50.2 33 -5.6 21.9
14:45 1016 30 846 24.98 10.2 50.4 32 -5.7 21.8
14:50 1016 30 845 24.95 10 50.1 32 -6 21.3
14:55 1016 30 845 24.95 10.3 50.5 32 -5.8 21.5
15:00 1016 30 845 24.95 10 49.9 34 -5.2 22.7
15:05 1016 30 845 24.95 9.4 48.8 33 -6 21.1
15:10 1016 30 845 24.95 9.9 49.8 33 -5.6 22
15:15 1016 30 845 24.95 10.4 50.6 33 -5.4 22.3
15:20 1016 30 845 24.95 10.7 51.2 34 -4.7 23.6
15:25 1016 30 845 24.95 10.2 50.4 35 -4.6 23.8
15:30 1016 30 845 24.95 9.3 48.7 38 -4.2 24.4
15:35 1016 30 845 24.95 8.4 47 39 -4.8 23.3
15:40 1015 29.97 845 24.95 8 46.4 39 -5.3 22.5
15:45 1016 30 845 24.95 7.7 45.8 40 -5 22.9
15:50 1015 29.97 845 24.95 7.5 45.4 41 -4.8 23.3
15:55 1015 29.97 845 24.95 7.1 44.8 41 -5.3 22.4
16:00 1015 29.97 845 24.95 7.1 44.7 42 -5.1 22.8
16:05 1015 29.97 845 24.95 7.1 44.7 41 -5.3 22.5
16:10 1015 29.97 844 24.92 6.9 44.4 39 -6.3 20.7
16:15 1015 29.97 844 24.92 7.1 44.8 38 -6.4 20.5
16:20 1015 29.97 844 24.92 6.9 44.4 43 -5 23.1
16:25 1015 29.97 844 24.92 6.5 43.8 43 -5.2 22.6
16:30 1015 29.97 844 24.92 6.5 43.8 40 -6 21.3
16:35 1015 29.97 844 24.92 6.5 43.7 42 -5.4 22.3
16:40 1015 29.97 844 24.92 6.3 43.4 43 -5.2 22.6
16:45 1015 29.97 844 24.92 6.1 42.9 43 -5.7 21.7
16:50 1015 29.97 844 24.92 6.3 43.3 40 -6.3 20.7
16:55 1014 29.94 844 24.92 6.7 44.1 34 -8.2 17.3
17:00 1014 29.94 844 24.92 7.4 45.3 34 -7.3 18.9
17:05 1014 29.94 844 24.92 6.8 44.2 38 -6.6 20.1
17:10 1014 29.94 844 24.92 6 42.9 42 -5.9 21.4
17:15 1014 29.94 843 24.89 5.8 42.4 38 -7.5 18.5
17:20 1014 29.94 843 24.89 6.5 43.8 35 -7.8 18
17:25 1014 29.94 843 24.89 6.5 43.8 36 -7.6 18.3
17:30 1014 29.94 843 24.89 6.1 42.9 39 -6.7 19.9
17:35 1014 29.94 843 24.89 6.4 43.6 33 -8.6 16.4
17:40 1014 29.94 843 24.89 6.6 43.9 35 -7.9 17.7
17:45 1014 29.94 843 24.89 6.6 43.9 35 -7.8 18
17:50 1014 29.94 843 24.89 7.1 44.8 31 -8.8 16.1
17:55 1014 29.94 843 24.89 7.5 45.6 33 -7.7 18.2
18:00 1013 29.91 843 24.89 7.4 45.3 32 -8.1 17.5
18:05 1013 29.91 843 24.89 7.3 45.2 34 -7.6 18.2
18:10 1013 29.91 843 24.89 7.2 45 34 -7.7 18.1
18:15 1013 29.91 842 24.86 7 44.6 31 -8.8 16.1
18:20 1013 29.91 842 24.86 7.2 44.9 33 -8.2 17.2
18:25 1013 29.91 842 24.86 7.1 44.8 32 -8.6 16.5
18:30 1013 29.91 842 24.86 7.1 44.7 33 -8.1 17.4
18:35 1013 29.91 842 24.86 6.9 44.4 33 -8.3 17
18:40 1013 29.91 842 24.86 6.8 44.3 33 -8.2 17.2
18:45 1013 29.91 842 24.86 7 44.6 33 -8.3 17
18:50 1013 29.91 842 24.86 7 44.6 32 -8.5 16.7
18:55 1013 29.91 842 24.86 7.2 45 31 -8.7 16.4
19:00 1012 29.88 842 24.86 7.4 45.3 31 -8.6 16.4
19:05 1012 29.88 841 24.83 7.5 45.5 31 -8.3 17
19:10 1012 29.88 841 24.83 7.4 45.3 32 -8.2 17.2
19:15 1012 29.88 841 24.83 7.5 45.4 31 -8.5 16.6
19:20 1012 29.88 841 24.83 7.5 45.5 32 -8.1 17.5
19:25 1012 29.88 841 24.83 7.4 45.2 32 -8.1 17.4
19:30 1012 29.88 841 24.83 7.2 44.9 32 -8.4 16.8
19:35 1012 29.88 841 24.83 7.1 44.8 32 -8.3 17
19:40 1012 29.88 841 24.83 7 44.7 33 -8 17.5
19:45 1011 29.85 841 24.83 6.9 44.4 34 -8.1 17.4
19:50 1011 29.85 840 24.81 6.8 44.3 34 -8 17.6
19:55 1011 29.85 840 24.81 6.7 44.1 35 -7.7 18.1
20:00 1011 29.85 840 24.81 6.4 43.5 35 -8 17.6
20:05 1011 29.85 840 24.81 6.4 43.5 35 -8 17.5
20:10 1011 29.85 840 24.81 6.8 44.3 33 -8.5 16.7
20:15 1011 29.85 840 24.81 7.4 45.3 32 -8.2 17.2
20:20 1011 29.85 840 24.81 7.4 45.3 32 -8.1 17.4
20:25 1011 29.85 840 24.81 7.2 45 34 -7.4 18.6
20:30 1011 29.85 840 24.81 6.9 44.5 34 -7.9 17.8
20:35 1010 29.83 840 24.81 7.3 45.1 34 -7.7 18.1
20:40 1010 29.83 840 24.81 7.1 44.7 34 -7.8 18
20:45 1010 29.83 839 24.78 7 44.6 35 -7.5 18.4
20:50 1010 29.83 839 24.78 6.8 44.2 36 -7.1 19.2
20:55 1010 29.83 839 24.78 6.6 44 35 -7.7 18.1
21:00 1010 29.83 839 24.78 6.9 44.4 35 -7.5 18.5
21:05 1010 29.83 839 24.78 6.8 44.2 37 -6.9 19.6
21:10 1010 29.83 839 24.78 6.9 44.4 36 -7.1 19.1
21:15 1010 29.83 839 24.78 6.8 44.2 37 -7 19.5
21:20 1009 29.8 839 24.78 6.8 44.2 38 -6.5 20.3
21:25 1009 29.8 839 24.78 7 44.6 35 -7.4 18.7
21:30 1009 29.8 839 24.78 6.9 44.5 38 -6.5 20.3
21:35 1009 29.8 839 24.78 6.8 44.3 36 -7.2 19.1
21:40 1009 29.8 838 24.75 7 44.7 36 -7.1 19.3
21:45 1009 29.8 838 24.75 6.9 44.5 38 -6.5 20.4
21:50 1009 29.8 838 24.75 6.6 43.9 38 -6.5 20.2
21:55 1009 29.8 838 24.75 6.7 44 37 -7 19.4
22:00 1009 29.8 838 24.75 6.8 44.3 39 -6.3 20.7
22:05 1009 29.8 838 24.75 6.6 43.9 39 -6.4 20.5
22:10 1009 29.8 838 24.75 6.4 43.6 40 -6.1 21
22:15 1009 29.8 838 24.75 6.4 43.5 37 -7.2 19
22:20 1009 29.8 838 24.75 6.8 44.2 38 -6.5 20.3
22:25 1009 29.8 838 24.75 6.7 44.1 37 -7 19.4
22:30 1009 29.8 838 24.75 7 44.5 35 -7.4 18.6
22:35 1009 29.8 838 24.75 7.2 44.9 35 -7.2 19
22:40 1008 29.77 837 24.72 7.1 44.7 35 -7.3 18.9
22:45 1008 29.77 837 24.72 7 44.7 36 -7.1 19.1
22:50 1008 29.77 837 24.72 7.2 45 36 -7 19.4
22:55 1008 29.77 837 24.72 7.3 45.2 34 -7.4 18.8
23:00 1008 29.77 837 24.72 7.3 45.1 35 -7.2 19.1
23:05 1008 29.77 837 24.72 7.3 45.1 33 -7.9 17.8
23:10 1008 29.77 837 24.72 7.5 45.5 33 -7.6 18.3
23:15 1008 29.77 837 24.72 7.6 45.8 33 -7.6 18.3
23:20 1008 29.77 837 24.72 7.7 45.8 34 -7.2 19.1
23:25 1008 29.77 837 24.72 7.4 45.2 37 -6.4 20.6
23:30 1008 29.77 837 24.72 6.7 44 38 -6.7 19.9
23:35 1008 29.77 837 24.72 6.5 43.8 38 -6.6 20
23:40 1008 29.77 837 24.72 6.4 43.5 37 -7.1 19.2
23:45 1007 29.74 837 24.72 6.6 43.8 37 -7.2 19
23:50 1007 29.74 837 24.72 6.6 43.9 36 -7.4 18.7
23:55 1007 29.74 837 24.72 6.8 44.2 35 -7.6 18.2
24:00 1007 29.74 836 24.69 7.1 44.7 34 -7.7 18.2